<?xml version="1.0" encoding="UTF-8" standalone="no" ?>
<gpx xmlns="http://www.topografix.com/GPX/1/1" xmlns:xsi="http://www.w3.org/2001/XMLSchema-instance" xsi:schemaLocation="http://www.topografix.com/GPX/1/1 http://www.topografix.com/GPX/1/1/gpx.xsd" version="1.1" creator="VisuGPX - https://www.visugpx.com">
  <metadata>
    <name>Le cluzel 03250</name>
    <desc><![CDATA[pas de balisage à faire avec la carte en main ou GPS, pas de difficulté majeure.]]></desc>
  </metadata>
  <trk>
    <name><![CDATA[OR-5813533--Nizerolles:le cluzel ]]></name>
    <trkseg>
      <trkpt lat="46.0721" lon="3.61888">
        <ele>525</ele>
        <time>2017-12-10T09:02:40Z</time>
      </trkpt>
      <trkpt lat="46.07155" lon="3.6195">
        <ele>524</ele>
        <time>2017-12-10T09:04:40Z</time>
      </trkpt>
      <trkpt lat="46.0707" lon="3.61954">
        <ele>521</ele>
        <time>2017-12-10T09:06:40Z</time>
      </trkpt>
      <trkpt lat="46.06974" lon="3.61921">
        <ele>517</ele>
        <time>2017-12-10T09:08:40Z</time>
      </trkpt>
      <trkpt lat="46.06887" lon="3.61896">
        <ele>513</ele>
        <time>2017-12-10T09:10:40Z</time>
      </trkpt>
      <trkpt lat="46.06843" lon="3.61868">
        <ele>514</ele>
        <time>2017-12-10T09:12:40Z</time>
      </trkpt>
      <trkpt lat="46.06784" lon="3.61907">
        <ele>516</ele>
        <time>2017-12-10T09:14:40Z</time>
      </trkpt>
      <trkpt lat="46.06727" lon="3.61964">
        <ele>517</ele>
        <time>2017-12-10T09:16:40Z</time>
      </trkpt>
      <trkpt lat="46.06667" lon="3.61964">
        <ele>522</ele>
        <time>2017-12-10T09:18:40Z</time>
      </trkpt>
      <trkpt lat="46.06595" lon="3.61982">
        <ele>521</ele>
        <time>2017-12-10T09:20:40Z</time>
      </trkpt>
      <trkpt lat="46.06551" lon="3.62014">
        <ele>521</ele>
        <time>2017-12-10T09:22:40Z</time>
      </trkpt>
      <trkpt lat="46.06489" lon="3.621">
        <ele>516</ele>
        <time>2017-12-10T09:24:40Z</time>
      </trkpt>
      <trkpt lat="46.06392" lon="3.62161">
        <ele>517</ele>
        <time>2017-12-10T09:26:40Z</time>
      </trkpt>
      <trkpt lat="46.0633" lon="3.62208">
        <ele>516</ele>
        <time>2017-12-10T09:28:40Z</time>
      </trkpt>
      <trkpt lat="46.06384" lon="3.6209">
        <ele>523</ele>
        <time>2017-12-10T09:30:40Z</time>
      </trkpt>
      <trkpt lat="46.06335" lon="3.6209">
        <ele>524</ele>
        <time>2017-12-10T09:32:40Z</time>
      </trkpt>
      <trkpt lat="46.0629" lon="3.62065">
        <ele>524</ele>
        <time>2017-12-10T09:34:40Z</time>
      </trkpt>
      <trkpt lat="46.06283" lon="3.61986">
        <ele>526</ele>
        <time>2017-12-10T09:36:40Z</time>
      </trkpt>
      <trkpt lat="46.0627" lon="3.61918">
        <ele>526</ele>
        <time>2017-12-10T09:38:40Z</time>
      </trkpt>
      <trkpt lat="46.06265" lon="3.61864">
        <ele>525</ele>
        <time>2017-12-10T09:40:40Z</time>
      </trkpt>
      <trkpt lat="46.06332" lon="3.61861">
        <ele>535</ele>
        <time>2017-12-10T09:42:40Z</time>
      </trkpt>
      <trkpt lat="46.06407" lon="3.61803">
        <ele>538</ele>
        <time>2017-12-10T09:44:40Z</time>
      </trkpt>
      <trkpt lat="46.06449" lon="3.61775">
        <ele>540</ele>
        <time>2017-12-10T09:46:40Z</time>
      </trkpt>
      <trkpt lat="46.06556" lon="3.61681">
        <ele>546</ele>
        <time>2017-12-10T09:48:40Z</time>
      </trkpt>
      <trkpt lat="46.0659" lon="3.61628">
        <ele>553</ele>
        <time>2017-12-10T09:50:40Z</time>
      </trkpt>
      <trkpt lat="46.06573" lon="3.61531">
        <ele>569</ele>
        <time>2017-12-10T09:52:40Z</time>
      </trkpt>
      <trkpt lat="46.06523" lon="3.61477">
        <ele>577</ele>
        <time>2017-12-10T09:54:40Z</time>
      </trkpt>
      <trkpt lat="46.06513" lon="3.61395">
        <ele>588</ele>
        <time>2017-12-10T09:56:40Z</time>
      </trkpt>
      <trkpt lat="46.06511" lon="3.61302">
        <ele>595</ele>
        <time>2017-12-10T09:58:40Z</time>
      </trkpt>
      <trkpt lat="46.06494" lon="3.61223">
        <ele>600</ele>
        <time>2017-12-10T10:00:40Z</time>
      </trkpt>
      <trkpt lat="46.06481" lon="3.61134">
        <ele>598</ele>
        <time>2017-12-10T10:02:40Z</time>
      </trkpt>
      <trkpt lat="46.06471" lon="3.6103">
        <ele>592</ele>
        <time>2017-12-10T10:04:40Z</time>
      </trkpt>
      <trkpt lat="46.06471" lon="3.60909">
        <ele>587</ele>
        <time>2017-12-10T10:06:40Z</time>
      </trkpt>
      <trkpt lat="46.06479" lon="3.60819">
        <ele>585</ele>
        <time>2017-12-10T10:08:40Z</time>
      </trkpt>
      <trkpt lat="46.06464" lon="3.60708">
        <ele>580</ele>
        <time>2017-12-10T10:10:40Z</time>
      </trkpt>
      <trkpt lat="46.06437" lon="3.60619">
        <ele>576</ele>
        <time>2017-12-10T10:12:40Z</time>
      </trkpt>
      <trkpt lat="46.06422" lon="3.6053">
        <ele>571</ele>
        <time>2017-12-10T10:14:40Z</time>
      </trkpt>
      <trkpt lat="46.06414" lon="3.60451">
        <ele>566</ele>
        <time>2017-12-10T10:16:40Z</time>
      </trkpt>
      <trkpt lat="46.06405" lon="3.60372">
        <ele>561</ele>
        <time>2017-12-10T10:18:40Z</time>
      </trkpt>
      <trkpt lat="46.0639" lon="3.60304">
        <ele>556</ele>
        <time>2017-12-10T10:20:40Z</time>
      </trkpt>
      <trkpt lat="46.06462" lon="3.60281">
        <ele>560</ele>
        <time>2017-12-10T10:22:40Z</time>
      </trkpt>
      <trkpt lat="46.06539" lon="3.60206">
        <ele>560</ele>
        <time>2017-12-10T10:24:40Z</time>
      </trkpt>
      <trkpt lat="46.06734" lon="3.59972">
        <ele>546</ele>
        <time>2017-12-10T10:26:40Z</time>
      </trkpt>
      <trkpt lat="46.06798" lon="3.59887">
        <ele>530</ele>
        <time>2017-12-10T10:28:40Z</time>
      </trkpt>
      <trkpt lat="46.06831" lon="3.59819">
        <ele>523</ele>
        <time>2017-12-10T10:30:40Z</time>
      </trkpt>
      <trkpt lat="46.06868" lon="3.59719">
        <ele>518</ele>
        <time>2017-12-10T10:32:40Z</time>
      </trkpt>
      <trkpt lat="46.0691" lon="3.59751">
        <ele>519</ele>
        <time>2017-12-10T10:34:40Z</time>
      </trkpt>
      <trkpt lat="46.06987" lon="3.5974">
        <ele>519</ele>
        <time>2017-12-10T10:36:40Z</time>
      </trkpt>
      <trkpt lat="46.06997" lon="3.59643">
        <ele>516</ele>
        <time>2017-12-10T10:38:40Z</time>
      </trkpt>
      <trkpt lat="46.07032" lon="3.59565">
        <ele>516</ele>
        <time>2017-12-10T10:40:40Z</time>
      </trkpt>
      <trkpt lat="46.07069" lon="3.595">
        <ele>518</ele>
        <time>2017-12-10T10:42:40Z</time>
      </trkpt>
      <trkpt lat="46.07143" lon="3.59459">
        <ele>522</ele>
        <time>2017-12-10T10:44:40Z</time>
      </trkpt>
      <trkpt lat="46.07103" lon="3.59342">
        <ele>510</ele>
        <time>2017-12-10T10:46:40Z</time>
      </trkpt>
      <trkpt lat="46.07078" lon="3.59199">
        <ele>511</ele>
        <time>2017-12-10T10:48:40Z</time>
      </trkpt>
      <trkpt lat="46.0712" lon="3.59145">
        <ele>511</ele>
        <time>2017-12-10T10:50:40Z</time>
      </trkpt>
      <trkpt lat="46.07115" lon="3.59063">
        <ele>513</ele>
        <time>2017-12-10T10:52:40Z</time>
      </trkpt>
      <trkpt lat="46.07085" lon="3.58984">
        <ele>516</ele>
        <time>2017-12-10T10:54:40Z</time>
      </trkpt>
      <trkpt lat="46.07085" lon="3.58898">
        <ele>517</ele>
        <time>2017-12-10T10:56:40Z</time>
      </trkpt>
      <trkpt lat="46.07093" lon="3.58784">
        <ele>520</ele>
        <time>2017-12-10T10:58:40Z</time>
      </trkpt>
      <trkpt lat="46.07117" lon="3.58734">
        <ele>519</ele>
        <time>2017-12-10T11:00:40Z</time>
      </trkpt>
      <trkpt lat="46.07152" lon="3.58626">
        <ele>516</ele>
        <time>2017-12-10T11:02:40Z</time>
      </trkpt>
      <trkpt lat="46.07192" lon="3.58569">
        <ele>516</ele>
        <time>2017-12-10T11:04:40Z</time>
      </trkpt>
      <trkpt lat="46.07222" lon="3.58498">
        <ele>516</ele>
        <time>2017-12-10T11:06:40Z</time>
      </trkpt>
      <trkpt lat="46.07289" lon="3.58548">
        <ele>516</ele>
        <time>2017-12-10T11:08:40Z</time>
      </trkpt>
      <trkpt lat="46.07343" lon="3.58605">
        <ele>516</ele>
        <time>2017-12-10T11:10:40Z</time>
      </trkpt>
      <trkpt lat="46.07425" lon="3.5858">
        <ele>516</ele>
        <time>2017-12-10T11:12:40Z</time>
      </trkpt>
      <trkpt lat="46.07532" lon="3.58601">
        <ele>502</ele>
        <time>2017-12-10T11:14:40Z</time>
      </trkpt>
      <trkpt lat="46.07572" lon="3.58525">
        <ele>495</ele>
        <time>2017-12-10T11:16:40Z</time>
      </trkpt>
      <trkpt lat="46.07634" lon="3.58465">
        <ele>487</ele>
        <time>2017-12-10T11:18:40Z</time>
      </trkpt>
      <trkpt lat="46.07627" lon="3.58368">
        <ele>481</ele>
        <time>2017-12-10T11:20:40Z</time>
      </trkpt>
      <trkpt lat="46.0761" lon="3.58279">
        <ele>480</ele>
        <time>2017-12-10T11:22:40Z</time>
      </trkpt>
      <trkpt lat="46.07667" lon="3.58304">
        <ele>473</ele>
        <time>2017-12-10T11:24:40Z</time>
      </trkpt>
      <trkpt lat="46.07716" lon="3.58268">
        <ele>469</ele>
        <time>2017-12-10T11:26:40Z</time>
      </trkpt>
      <trkpt lat="46.07778" lon="3.58182">
        <ele>469</ele>
        <time>2017-12-10T11:28:40Z</time>
      </trkpt>
      <trkpt lat="46.07838" lon="3.5825">
        <ele>471</ele>
        <time>2017-12-10T11:30:40Z</time>
      </trkpt>
      <trkpt lat="46.0789" lon="3.58265">
        <ele>474</ele>
        <time>2017-12-10T11:32:40Z</time>
      </trkpt>
      <trkpt lat="46.07922" lon="3.58171">
        <ele>480</ele>
        <time>2017-12-10T11:34:40Z</time>
      </trkpt>
      <trkpt lat="46.07974" lon="3.58053">
        <ele>480</ele>
        <time>2017-12-10T11:36:40Z</time>
      </trkpt>
      <trkpt lat="46.08024" lon="3.58063">
        <ele>474</ele>
        <time>2017-12-10T11:38:40Z</time>
      </trkpt>
      <trkpt lat="46.08017" lon="3.58242">
        <ele>474</ele>
        <time>2017-12-10T11:40:40Z</time>
      </trkpt>
      <trkpt lat="46.08119" lon="3.58289">
        <ele>469</ele>
        <time>2017-12-10T11:42:40Z</time>
      </trkpt>
      <trkpt lat="46.08193" lon="3.58314">
        <ele>468</ele>
        <time>2017-12-10T11:44:40Z</time>
      </trkpt>
      <trkpt lat="46.08255" lon="3.58378">
        <ele>472</ele>
        <time>2017-12-10T11:46:40Z</time>
      </trkpt>
      <trkpt lat="46.08196" lon="3.58476">
        <ele>479</ele>
        <time>2017-12-10T11:48:40Z</time>
      </trkpt>
      <trkpt lat="46.08186" lon="3.58655">
        <ele>491</ele>
        <time>2017-12-10T11:50:40Z</time>
      </trkpt>
      <trkpt lat="46.08208" lon="3.58759">
        <ele>489</ele>
        <time>2017-12-10T11:52:40Z</time>
      </trkpt>
      <trkpt lat="46.08319" lon="3.58773">
        <ele>488</ele>
        <time>2017-12-10T11:54:40Z</time>
      </trkpt>
      <trkpt lat="46.08342" lon="3.58852">
        <ele>486</ele>
        <time>2017-12-10T11:56:40Z</time>
      </trkpt>
      <trkpt lat="46.08391" lon="3.589">
        <ele>488</ele>
        <time>2017-12-10T11:58:40Z</time>
      </trkpt>
      <trkpt lat="46.08356" lon="3.58942">
        <ele>487</ele>
        <time>2017-12-10T12:00:40Z</time>
      </trkpt>
      <trkpt lat="46.08376" lon="3.59043">
        <ele>487</ele>
        <time>2017-12-10T12:02:40Z</time>
      </trkpt>
      <trkpt lat="46.08299" lon="3.59125">
        <ele>481</ele>
        <time>2017-12-10T12:04:40Z</time>
      </trkpt>
      <trkpt lat="46.08247" lon="3.59168">
        <ele>478</ele>
        <time>2017-12-10T12:06:40Z</time>
      </trkpt>
      <trkpt lat="46.08289" lon="3.59297">
        <ele>474</ele>
        <time>2017-12-10T12:08:40Z</time>
      </trkpt>
      <trkpt lat="46.08237" lon="3.59304">
        <ele>473</ele>
        <time>2017-12-10T12:10:40Z</time>
      </trkpt>
      <trkpt lat="46.0814" lon="3.59343">
        <ele>476</ele>
        <time>2017-12-10T12:12:40Z</time>
      </trkpt>
      <trkpt lat="46.08123" lon="3.59454">
        <ele>483</ele>
        <time>2017-12-10T12:14:40Z</time>
      </trkpt>
      <trkpt lat="46.08068" lon="3.59511">
        <ele>486</ele>
        <time>2017-12-10T12:16:40Z</time>
      </trkpt>
      <trkpt lat="46.08034" lon="3.59443">
        <ele>484</ele>
        <time>2017-12-10T12:18:40Z</time>
      </trkpt>
      <trkpt lat="46.07987" lon="3.59411">
        <ele>489</ele>
        <time>2017-12-10T12:20:40Z</time>
      </trkpt>
      <trkpt lat="46.07934" lon="3.59375">
        <ele>494</ele>
        <time>2017-12-10T12:22:40Z</time>
      </trkpt>
      <trkpt lat="46.07865" lon="3.59375">
        <ele>499</ele>
        <time>2017-12-10T12:24:40Z</time>
      </trkpt>
      <trkpt lat="46.07817" lon="3.594">
        <ele>502</ele>
        <time>2017-12-10T12:26:40Z</time>
      </trkpt>
      <trkpt lat="46.07798" lon="3.59429">
        <ele>505</ele>
        <time>2017-12-10T12:28:40Z</time>
      </trkpt>
      <trkpt lat="46.07793" lon="3.59487">
        <ele>510</ele>
        <time>2017-12-10T12:30:40Z</time>
      </trkpt>
      <trkpt lat="46.07735" lon="3.59506">
        <ele>508</ele>
        <time>2017-12-10T12:32:40Z</time>
      </trkpt>
      <trkpt lat="46.07625" lon="3.59449">
        <ele>508</ele>
        <time>2017-12-10T12:34:40Z</time>
      </trkpt>
      <trkpt lat="46.07496" lon="3.59395">
        <ele>515</ele>
        <time>2017-12-10T12:36:40Z</time>
      </trkpt>
      <trkpt lat="46.07437" lon="3.59511">
        <ele>536</ele>
        <time>2017-12-10T12:38:40Z</time>
      </trkpt>
      <trkpt lat="46.07376" lon="3.59633">
        <ele>535</ele>
        <time>2017-12-10T12:40:40Z</time>
      </trkpt>
      <trkpt lat="46.07338" lon="3.59798">
        <ele>542</ele>
        <time>2017-12-10T12:42:40Z</time>
      </trkpt>
      <trkpt lat="46.07348" lon="3.59974">
        <ele>546</ele>
        <time>2017-12-10T12:44:40Z</time>
      </trkpt>
      <trkpt lat="46.07338" lon="3.60174">
        <ele>553</ele>
        <time>2017-12-10T12:46:40Z</time>
      </trkpt>
      <trkpt lat="46.07382" lon="3.60315">
        <ele>557</ele>
        <time>2017-12-10T12:48:40Z</time>
      </trkpt>
      <trkpt lat="46.07394" lon="3.60453">
        <ele>559</ele>
        <time>2017-12-10T12:50:40Z</time>
      </trkpt>
      <trkpt lat="46.07299" lon="3.60569">
        <ele>563</ele>
        <time>2017-12-10T12:52:40Z</time>
      </trkpt>
      <trkpt lat="46.07244" lon="3.60699">
        <ele>569</ele>
        <time>2017-12-10T12:54:40Z</time>
      </trkpt>
      <trkpt lat="46.07247" lon="3.60998">
        <ele>579</ele>
        <time>2017-12-10T12:56:40Z</time>
      </trkpt>
      <trkpt lat="46.07274" lon="3.61096">
        <ele>581</ele>
        <time>2017-12-10T12:58:40Z</time>
      </trkpt>
      <trkpt lat="46.0725" lon="3.61253">
        <ele>581</ele>
        <time>2017-12-10T13:00:40Z</time>
      </trkpt>
      <trkpt lat="46.07263" lon="3.61373">
        <ele>572</ele>
        <time>2017-12-10T13:02:40Z</time>
      </trkpt>
      <trkpt lat="46.07213" lon="3.61459">
        <ele>562</ele>
        <time>2017-12-10T13:04:40Z</time>
      </trkpt>
      <trkpt lat="46.07161" lon="3.61534">
        <ele>555</ele>
        <time>2017-12-10T13:06:40Z</time>
      </trkpt>
      <trkpt lat="46.07268" lon="3.61676">
        <ele>537</ele>
        <time>2017-12-10T13:08:40Z</time>
      </trkpt>
      <trkpt lat="46.07262" lon="3.61787">
        <ele>528</ele>
        <time>2017-12-10T13:10:40Z</time>
      </trkpt>
      <trkpt lat="46.07244" lon="3.61839">
        <ele>526</ele>
        <time>2017-12-10T13:12:40Z</time>
      </trkpt>
    </trkseg>
  </trk>
</gpx>